createdAt,value
2023-04-08T00:02:39.996Z,51431.75
2023-04-08T00:07:44.849Z,51469.75
2023-04-08T00:12:49.829Z,51405.75
2023-04-08T00:17:55.595Z,51447.75
2023-04-08T00:22:59.999Z,51417.75
2023-04-08T00:28:04.452Z,51429.75
2023-04-08T00:33:10.315Z,51441.75
2023-04-08T00:38:16.340Z,51457.75
2023-04-08T00:43:21.596Z,51453.75
2023-04-08T00:48:27.471Z,51445.75
2023-04-08T00:53:33.010Z,51465.75
2023-04-08T00:58:37.433Z,51441.75
2023-04-08T01:04:03.870Z,51439.75
2023-04-08T01:09:10.561Z,51437.75
2023-04-08T01:14:18.954Z,51391.75
2023-04-08T01:19:30.784Z,51387.75
2023-04-08T01:24:42.112Z,51341.78
2023-04-08T01:29:50.173Z,51397.75
2023-04-08T01:34:55.742Z,51389.75
2023-04-08T01:40:02.845Z,51377.75
2023-04-08T01:45:11.044Z,51349.78
2023-04-08T01:50:16.794Z,51387.75
2023-04-08T01:55:21.896Z,51331.78
2023-04-08T02:00:30.978Z,51333.78
2023-04-08T02:05:35.748Z,51323.78
2023-04-08T02:10:40.976Z,51341.78
2023-04-08T02:15:54.246Z,51331.78
2023-04-08T02:21:04.867Z,51305.78
2023-04-08T02:26:17.335Z,51303.78
2023-04-08T02:31:23.334Z,51297.78
2023-04-08T02:36:28.068Z,51287.78
2023-04-08T02:41:32.916Z,51265.78
2023-04-08T02:46:38.486Z,51281.78
2023-04-08T02:51:42.704Z,51317.78
2023-04-08T02:56:46.865Z,51341.78
2023-04-08T03:01:52.723Z,51345.75
2023-04-08T03:06:56.942Z,51303.78
2023-04-08T03:12:01.734Z,51309.78
2023-04-08T03:17:07.623Z,51293.78
2023-04-08T03:22:11.969Z,51299.78
2023-04-08T03:27:16.153Z,51289.78
2023-04-08T03:32:21.871Z,51287.78
2023-04-08T03:37:26.304Z,51293.78
2023-04-08T03:42:30.916Z,51299.78
2023-04-08T03:47:36.543Z,51315.78
2023-04-08T03:52:40.876Z,51329.78
2023-04-08T03:57:46.101Z,51289.78
2023-04-08T04:02:51.791Z,51293.78
2023-04-08T04:07:55.951Z,51313.78
2023-04-08T04:13:00.151Z,51291.78
2023-04-08T04:18:06.187Z,51289.78
2023-04-08T04:23:11.261Z,51307.78
2023-04-08T04:28:15.823Z,51309.78
2023-04-08T04:33:22.179Z,51289.78
2023-04-08T04:38:27.436Z,51315.78
2023-04-08T04:43:31.538Z,51313.78
2023-04-08T04:48:37.609Z,51317.78
2023-04-08T04:53:42.067Z,51313.78
2023-04-08T04:58:46.600Z,51321.78
2023-04-08T05:03:52.080Z,51297.78
2023-04-08T05:08:56.595Z,51289.78
2023-04-08T05:14:00.896Z,51281.78
2023-04-08T05:19:06.868Z,51239.78
2023-04-08T05:24:11.607Z,51185.81
2023-04-08T05:29:15.695Z,51189.81
2023-04-08T05:34:23.376Z,51167.81
2023-04-08T05:39:27.611Z,51203.78
2023-04-08T05:44:31.751Z,51187.81
2023-04-08T05:49:37.331Z,51163.81
2023-04-08T05:54:44.530Z,51059.81
2023-04-08T05:59:48.709Z,51105.81
2023-04-08T06:04:54.406Z,51093.81
2023-04-08T06:09:58.741Z,51099.81
2023-04-08T06:15:02.910Z,50957.84
2023-04-08T06:20:10.010Z,50861.88
2023-04-08T06:25:14.188Z,50819.91
2023-04-08T06:30:18.690Z,50825.91
2023-04-08T06:35:24.435Z,50593.97
2023-04-08T06:40:28.832Z,50671.94
2023-04-08T06:45:33.026Z,50480.03
2023-04-08T06:50:38.621Z,50292.09
2023-04-08T06:55:42.698Z,50312.09
2023-04-08T07:00:47.376Z,50382.06
2023-04-08T07:05:52.966Z,50719.94
2023-04-08T07:10:57.624Z,50573.97
2023-04-08T07:16:01.903Z,50605.97
2023-04-08T07:21:07.537Z,50577.97
2023-04-08T07:26:12.209Z,50701.94
2023-04-08T07:31:17.527Z,50382.06
2023-04-08T07:36:23.424Z,50554.00
2023-04-08T07:41:27.596Z,50426.03
2023-04-08T07:46:32.081Z,50160.16
2023-04-08T07:51:38.532Z,50168.16
2023-04-08T07:56:44.903Z,50188.16
2023-04-08T08:01:49.273Z,50190.16
2023-04-08T08:06:54.819Z,50454.03
2023-04-08T08:11:59.315Z,50741.94
2023-04-08T08:17:05.190Z,50685.94
2023-04-08T08:22:10.755Z,50677.94
2023-04-08T08:27:14.902Z,50751.91
2023-04-08T08:32:19.248Z,50591.97
2023-04-08T08:37:25.043Z,50274.09
2023-04-08T08:42:29.552Z,50292.09
2023-04-08T08:47:33.940Z,50358.06
2023-04-08T08:52:39.514Z,50438.03
2023-04-08T08:57:43.783Z,50494.00
2023-04-08T09:02:48.422Z,50368.06
2023-04-08T09:07:54.123Z,50274.09
2023-04-08T09:12:58.606Z,50254.13
2023-04-08T09:18:04.377Z,50320.09
2023-04-08T09:23:10.185Z,50286.09
2023-04-08T09:28:21.632Z,50364.06
2023-04-08T09:33:32.190Z,50438.03
2023-04-08T09:38:37.831Z,50418.03
2023-04-08T09:43:49.494Z,50354.06
2023-04-08T09:49:02.824Z,50418.03
2023-04-08T09:54:16.342Z,50404.06
2023-04-08T09:59:28.249Z,50474.03
2023-04-08T10:04:37.707Z,50546.00
2023-04-08T10:09:44.277Z,50352.06
2023-04-08T10:15:21.952Z,50625.97
2023-04-08T10:20:46.286Z,50671.94
2023-04-08T10:25:52.072Z,50581.97
2023-04-08T10:30:57.698Z,50490.00
2023-04-08T10:36:11.704Z,50589.97
2023-04-08T10:41:25.612Z,50633.97
2023-04-08T10:46:29.882Z,50631.97
2023-04-08T10:51:35.354Z,50430.03
2023-04-08T10:56:47.849Z,50589.97
2023-04-08T11:01:52.802Z,50603.97
2023-04-08T11:06:57.053Z,50695.94
2023-04-08T11:12:04.030Z,50707.94
2023-04-08T11:17:10.585Z,50532.00
2023-04-08T11:22:14.829Z,50458.03
2023-04-08T11:27:21.314Z,50518.00
2023-04-08T11:32:25.838Z,50406.06
2023-04-08T11:37:39.323Z,50326.09
2023-04-08T11:42:46.947Z,50334.09
2023-04-08T11:47:51.895Z,50328.09
2023-04-08T11:52:57.225Z,50360.06
2023-04-08T11:58:06.439Z,50320.09
2023-04-08T12:03:11.698Z,50316.09
2023-04-08T12:08:16.559Z,50246.13
2023-04-08T12:13:22.353Z,50210.13
2023-04-08T12:18:26.688Z,50240.13
2023-04-08T12:23:31.241Z,50206.13
2023-04-08T12:28:36.890Z,50238.13
2023-04-08T12:33:41.342Z,50268.09
2023-04-08T12:38:46.178Z,50264.13
2023-04-08T12:43:51.976Z,50288.09
2023-04-08T12:49:03.077Z,50240.13
2023-04-08T12:54:08.956Z,50192.16
2023-04-08T12:59:14.768Z,50278.09
2023-04-08T13:04:20.048Z,50248.13
2023-04-08T13:09:24.561Z,50260.13
2023-04-08T13:14:30.767Z,50258.13
2023-04-08T13:19:35.293Z,50274.09
2023-04-08T13:24:39.474Z,50300.09
2023-04-08T13:29:45.290Z,50328.09
2023-04-08T13:34:49.663Z,50314.09
2023-04-08T13:39:53.760Z,50386.06
2023-04-08T13:44:59.549Z,50404.06
2023-04-08T13:50:03.973Z,50474.03
2023-04-08T13:55:08.821Z,50514.00
2023-04-08T14:00:15.606Z,50546.00
2023-04-08T14:05:19.995Z,50629.97
2023-04-08T14:10:24.458Z,50575.97
2023-04-08T14:15:30.188Z,50699.94
2023-04-08T14:20:35.689Z,50671.94
2023-04-08T14:25:40.041Z,50739.94
2023-04-08T14:30:46.085Z,50761.91
2023-04-08T14:35:50.733Z,50797.91
2023-04-08T14:40:55.747Z,50833.91
2023-04-08T14:46:01.620Z,50821.91
2023-04-08T14:51:06.309Z,50875.88
2023-04-08T14:56:10.665Z,50823.91
2023-04-08T15:01:16.474Z,50777.91
2023-04-08T15:06:22.045Z,50861.88
2023-04-08T15:11:26.938Z,50855.88
2023-04-08T15:16:32.662Z,50837.91
2023-04-08T15:21:37.259Z,50817.91
2023-04-08T15:26:41.834Z,50865.88
2023-04-08T15:31:47.900Z,50857.88
2023-04-08T15:36:52.417Z,50849.88
2023-04-08T15:41:57.074Z,50839.88
2023-04-08T15:47:02.941Z,50877.88
2023-04-08T15:52:07.688Z,50905.88
2023-04-08T15:57:12.126Z,50851.88
2023-04-08T16:02:18.293Z,50867.88
2023-04-08T16:07:22.690Z,50903.88
2023-04-08T16:12:27.208Z,50891.88
2023-04-08T16:17:32.865Z,50901.88
2023-04-08T16:22:37.555Z,50889.88
2023-04-08T16:27:42.036Z,50899.88
2023-04-08T16:32:48.043Z,50877.88
2023-04-08T16:37:52.258Z,50891.88
2023-04-08T16:42:56.855Z,50881.88
2023-04-08T16:48:02.826Z,50931.88
2023-04-08T16:53:07.074Z,50913.88
2023-04-08T16:58:11.771Z,50877.88
2023-04-08T17:03:17.464Z,50865.88
2023-04-08T17:08:21.640Z,50909.88
2023-04-08T17:13:25.901Z,50925.88
2023-04-08T17:18:31.632Z,50881.88
2023-04-08T17:23:35.960Z,50925.88
2023-04-08T17:28:40.661Z,50909.88
2023-04-08T17:33:46.462Z,50905.88
2023-04-08T17:38:51.063Z,50939.88
2023-04-08T17:43:55.310Z,50939.88
2023-04-08T17:49:01.120Z,50961.84
2023-04-08T17:54:06.096Z,50995.84
2023-04-08T17:59:10.340Z,51029.84
2023-04-08T18:04:16.502Z,51095.81
2023-04-08T18:09:20.948Z,51157.81
2023-04-08T18:14:25.471Z,51197.78
2023-04-08T18:19:31.252Z,51177.81
2023-04-08T18:24:35.651Z,51221.78
2023-04-08T18:29:40.296Z,51233.78
2023-04-08T18:34:45.984Z,51265.78
2023-04-08T18:39:53.423Z,51255.78
2023-04-08T18:44:58.101Z,51269.78
2023-04-08T18:50:04.090Z,51301.78
2023-04-08T18:55:08.852Z,51305.78
2023-04-08T19:00:13.961Z,51317.78
2023-04-08T19:05:20.013Z,51341.78
2023-04-08T19:10:25.548Z,51345.75
2023-04-08T19:15:30.439Z,51337.78
2023-04-08T19:20:36.255Z,51371.75
2023-04-08T19:25:41.007Z,51391.75
2023-04-08T19:30:45.510Z,51353.75
2023-04-08T19:35:51.505Z,51373.75
2023-04-08T19:40:56.047Z,51407.75
2023-04-08T19:46:00.776Z,51433.75
2023-04-08T19:51:07.026Z,51431.75
2023-04-08T19:56:11.806Z,51417.75
2023-04-08T20:01:16.245Z,51399.75
2023-04-08T20:06:23.379Z,51421.75
2023-04-08T20:11:27.897Z,51395.75
2023-04-08T20:16:32.809Z,51443.75
2023-04-08T20:21:38.949Z,51447.75
2023-04-08T20:26:44.210Z,51453.75
2023-04-08T20:31:48.513Z,51425.75
2023-04-08T20:36:54.062Z,51449.75
2023-04-08T20:41:58.514Z,51447.75
2023-04-08T20:47:03.261Z,51441.75
2023-04-08T20:52:09.355Z,51405.75
2023-04-08T20:57:13.911Z,51443.75
2023-04-08T21:02:21.071Z,51455.75
2023-04-08T21:07:27.812Z,51431.75
2023-04-08T21:12:32.247Z,51433.75
2023-04-08T21:17:36.793Z,51451.75
2023-04-08T21:22:42.669Z,51475.75
2023-04-08T21:27:47.137Z,51509.75
2023-04-08T21:32:51.375Z,51565.72
2023-04-08T21:37:57.147Z,51585.72
2023-04-08T21:43:01.531Z,51613.72
2023-04-08T21:48:06.154Z,51629.72
2023-04-08T21:53:12.004Z,51669.72
2023-04-08T21:58:18.354Z,51663.72
2023-04-08T22:03:22.609Z,51661.72
2023-04-08T22:08:29.217Z,51709.72
2023-04-08T22:13:33.388Z,51677.72
2023-04-08T22:18:37.530Z,51689.72
2023-04-08T22:23:43.315Z,51731.72
2023-04-08T22:28:47.979Z,51715.72
2023-04-08T22:33:52.259Z,51717.72
2023-04-08T22:38:57.925Z,51713.72
2023-04-08T22:44:02.030Z,51711.72
2023-04-08T22:49:06.466Z,51721.72
2023-04-08T22:54:12.008Z,51685.72
2023-04-08T22:59:16.830Z,51719.72
2023-04-08T23:04:21.541Z,51699.72
2023-04-08T23:09:27.532Z,51697.72
2023-04-08T23:14:31.657Z,51705.72
2023-04-08T23:19:36.123Z,51709.72
2023-04-08T23:24:41.801Z,51683.72
2023-04-08T23:29:46.407Z,51689.72
2023-04-08T23:34:50.886Z,51693.72
2023-04-08T23:39:56.876Z,51689.72
2023-04-08T23:45:01.355Z,51661.72
2023-04-08T23:50:06.582Z,51681.72
2023-04-08T23:55:12.450Z,51677.72
